Time;durP1;ratioP1;P1;durP2;ratioP2;P2;SDS_P1;SDS_P2;PMS_P1;PMS_P2;Temp;Humidity;BMP_temperature;BMP_pressure;BME280_temperature;BME280_humidity;BME280_pressure;Samples;Min_cycle;Max_cycle;Signal;HPM_P1;HPM_P2
2021/12/07 00:03:00;;;;;;;8.25;7.50;;;;;;;;;;12494416;28;20056;-73
2021/12/07 00:09:05;;;;;;;9.30;8.40;;;;;;;;;;12494512;28;20038;-73
2021/12/07 00:15:07;;;;;;;8.95;8.13;;;;;;;;;;12493080;28;20041;-74
2021/12/07 00:21:09;;;;;;;9.30;8.50;;;;;;;;;;12494278;28;20026;-73
2021/12/07 00:27:11;;;;;;;9.07;8.27;;;;;;;;;;12493004;28;20504;-74
2021/12/07 00:33:35;;;;;;;6.85;6.22;;;;;;;;;;12494291;28;20037;-74
2021/12/07 00:39:37;;;;;;;8.63;7.72;;;;;;;;;;12493595;28;20384;-74
2021/12/07 00:45:43;;;;;;;6.93;6.30;;;;;;;;;;12492286;28;20034;-74
2021/12/07 00:51:45;;;;;;;8.75;7.97;;;;;;;;;;12493990;28;20034;-73
2021/12/07 00:57:51;;;;;;;5.93;5.43;;;;;;;;;;12492953;28;20554;-74
2021/12/07 01:03:54;;;;;;;8.02;7.32;;;;;;;;;;12496877;28;20505;-74
2021/12/07 01:28:58;;;;;;;8.35;7.65;;;;;;;;;;12500923;28;20034;-73
2021/12/07 02:00:16;;;;;;;7.05;6.40;;;;;;;;;;12487874;28;20398;-74
2021/12/07 02:06:18;;;;;;;6.85;6.25;;;;;;;;;;12498867;28;20057;-74
2021/12/07 02:12:20;;;;;;;6.23;5.70;;;;;;;;;;12498051;28;20545;-74
2021/12/07 02:18:22;;;;;;;6.55;5.95;;;;;;;;;;12497922;28;20049;-74
2021/12/07 02:24:25;;;;;;;6.10;5.60;;;;;;;;;;12498988;28;20037;-74
2021/12/07 02:30:27;;;;;;;;;;;;;;;;;;12498177;28;20052;-74
2021/12/07 02:36:29;;;;;;;6.70;6.10;;;;;;;;;;12499493;28;19928;-74
2021/12/07 02:42:31;;;;;;;6.07;5.57;;;;;;;;;;12496881;28;20033;-74
2021/12/07 02:48:33;;;;;;;6.20;5.65;;;;;;;;;;12496487;28;20033;-74
2021/12/07 02:54:43;;;;;;;6.90;6.22;;;;;;;;;;12496219;28;20033;-74
2021/12/07 03:00:53;;;;;;;9.07;7.75;;;;;;;;;;12497315;28;20049;-74
2021/12/07 03:07:21;;;;;;;5.80;5.30;;;;;;;;;;12496596;28;20049;-74
2021/12/07 03:26:11;;;;;;;6.90;6.20;;;;;;;;;;12494294;28;20048;-74
2021/12/07 03:32:18;;;;;;;4.85;4.45;;;;;;;;;;12479467;28;20045;-74
2021/12/07 03:38:21;;;;;;;5.18;4.75;;;;;;;;;;12494453;28;20409;-74
2021/12/07 03:44:24;;;;;;;4.68;4.28;;;;;;;;;;12495008;28;20040;-74
2021/12/07 03:50:27;;;;;;;5.40;4.68;;;;;;;;;;12494089;28;20049;-74
2021/12/07 03:56:29;;;;;;;4.55;4.13;;;;;;;;;;12477478;28;20405;-74
2021/12/07 04:02:37;;;;;;;5.45;4.65;;;;;;;;;;12493278;28;20375;-74
2021/12/07 04:08:41;;;;;;;4.18;3.83;;;;;;;;;;12493974;28;20065;-74
2021/12/07 04:14:44;;;;;;;4.13;3.83;;;;;;;;;;12493316;28;20057;-74
2021/12/07 04:20:46;;;;;;;4.27;3.87;;;;;;;;;;12493040;28;20041;-75
2021/12/07 04:26:48;;;;;;;5.18;4.45;;;;;;;;;;12476561;28;20033;-74
2021/12/07 04:32:50;;;;;;;4.05;3.75;;;;;;;;;;12492973;28;20038;-74
2021/12/07 04:38:52;;;;;;;4.65;4.25;;;;;;;;;;12499500;28;20126;-74
2021/12/07 04:44:58;;;;;;;4.35;3.95;;;;;;;;;;12502165;28;20386;-74
2021/12/07 05:03:42;;;;;;;4.95;4.40;;;;;;;;;;12502203;28;20065;-75
2021/12/07 05:40:45;;;;;;;4.80;4.10;;;;;;;;;;12500786;28;20038;-73
2021/12/07 05:46:46;;;;;;;5.25;4.80;;;;;;;;;;12499895;28;20052;-74
2021/12/07 05:52:48;;;;;;;16.40;11.98;;;;;;;;;;12498859;28;20582;-74
2021/12/07 05:58:50;;;;;;;10.95;8.25;;;;;;;;;;12498829;28;20045;-74
2021/12/07 06:04:51;;;;;;;9.63;6.65;;;;;;;;;;12499789;28;20057;-73
2021/12/07 06:10:53;;;;;;;11.82;9.07;;;;;;;;;;12498631;28;20033;-74
2021/12/07 06:16:55;;;;;;;11.25;9.20;;;;;;;;;;12481572;28;20045;-74
2021/12/07 06:22:57;;;;;;;23.85;17.70;;;;;;;;;;12497595;28;20529;-74
2021/12/07 06:28:59;;;;;;;12.47;10.33;;;;;;;;;;12522786;28;20029;-74
2021/12/07 06:35:00;;;;;;;11.60;9.45;;;;;;;;;;12499825;28;20037;-74
2021/12/07 06:41:03;;;;;;;9.75;8.73;;;;;;;;;;12541082;28;20036;-74
2021/12/07 06:47:05;;;;;;;9.77;8.80;;;;;;;;;;12502576;28;20029;-74
2021/12/07 06:53:07;;;;;;;11.18;10.02;;;;;;;;;;12514442;28;20029;-75
2021/12/07 06:59:09;;;;;;;10.47;9.20;;;;;;;;;;12544423;28;20398;-75
2021/12/07 07:05:11;;;;;;;8.90;7.97;;;;;;;;;;12533280;28;20072;-74
2021/12/07 07:11:13;;;;;;;8.00;7.20;;;;;;;;;;12512000;28;20036;-74
2021/12/07 07:17:14;;;;;;;9.80;8.70;;;;;;;;;;12520551;28;20043;-73
2021/12/07 07:23:16;;;;;;;8.50;7.63;;;;;;;;;;12509567;28;20037;-75
2021/12/07 07:29:18;;;;;;;10.50;9.55;;;;;;;;;;12524532;28;20040;-73
2021/12/07 07:35:20;;;;;;;10.27;9.27;;;;;;;;;;12512419;28;20046;-73
2021/12/07 07:41:21;;;;;;;9.97;8.87;;;;;;;;;;12507623;28;20485;-73
2021/12/07 07:47:26;;;;;;;10.93;9.80;;;;;;;;;;12518846;28;20508;-73
2021/12/07 07:53:27;;;;;;;11.43;10.32;;;;;;;;;;12516038;28;20025;-73
2021/12/07 07:59:33;;;;;;;11.88;10.68;;;;;;;;;;12507243;28;20032;-73
2021/12/07 08:05:35;;;;;;;11.52;10.38;;;;;;;;;;12503038;28;20057;-73
2021/12/07 08:11:37;;;;;;;12.77;10.65;;;;;;;;;;12512847;28;20360;-73
2021/12/07 08:17:39;;;;;;;9.00;7.87;;;;;;;;;;12526027;28;20041;-73
2021/12/07 08:23:41;;;;;;;9.15;8.23;;;;;;;;;;12523090;28;20040;-73
2021/12/07 08:29:43;;;;;;;11.55;10.43;;;;;;;;;;12525268;28;20033;-73
2021/12/07 08:35:45;;;;;;;11.70;9.68;;;;;;;;;;12522131;28;20029;-73
2021/12/07 08:41:46;;;;;;;9.07;7.95;;;;;;;;;;12523719;28;20025;-73
2021/12/07 08:47:48;;;;;;;10.65;9.55;;;;;;;;;;12520063;28;20389;-73
2021/12/07 08:53:56;;;;;;;8.02;7.22;;;;;;;;;;12526570;28;20036;-74
2021/12/07 08:59:58;;;;;;;8.25;7.45;;;;;;;;;;12517409;28;20040;-73
2021/12/07 09:06:00;;;;;;;7.68;6.40;;;;;;;;;;12522144;28;20056;-73
2021/12/07 09:12:02;;;;;;;8.40;7.50;;;;;;;;;;12522177;28;20044;-74
2021/12/07 09:18:04;;;;;;;7.07;6.37;;;;;;;;;;12540576;28;20037;-73
2021/12/07 09:24:06;;;;;;;6.47;5.88;;;;;;;;;;12518692;28;20040;-74
2021/12/07 09:30:08;;;;;;;6.50;5.90;;;;;;;;;;12515928;28;20033;-73
2021/12/07 09:36:11;;;;;;;8.27;7.47;;;;;;;;;;12520474;28;20061;-74
2021/12/07 09:42:13;;;;;;;8.95;7.80;;;;;;;;;;12527682;28;20433;-74
2021/12/07 09:48:15;;;;;;;8.60;7.72;;;;;;;;;;12517888;28;20040;-73
2021/12/07 09:54:17;;;;;;;8.20;7.40;;;;;;;;;;12525612;28;20040;-73
2021/12/07 10:00:21;;;;;;;7.75;6.95;;;;;;;;;;12510555;28;20042;-74
2021/12/07 10:06:23;;;;;;;6.85;6.15;;;;;;;;;;12525013;28;20076;-74
2021/12/07 10:12:25;;;;;;;6.97;6.30;;;;;;;;;;12509103;28;20466;-74
2021/12/07 10:18:28;;;;;;;7.60;6.50;;;;;;;;;;12519737;28;20048;-74
2021/12/07 10:24:35;;;;;;;;;;;;;;;;;;12518941;28;20052;-73
2021/12/07 10:30:36;;;;;;;6.78;6.18;;;;;;;;;;12512519;28;20358;-72
2021/12/07 10:37:05;;;;;;;6.30;5.38;;;;;;;;;;12522555;28;20052;-73
2021/12/07 10:43:07;;;;;;;4.95;4.45;;;;;;;;;;12522152;28;20048;-72
2021/12/07 10:49:14;;;;;;;6.28;5.68;;;;;;;;;;12508946;28;20034;-74
2021/12/07 10:55:16;;;;;;;5.13;4.63;;;;;;;;;;12521975;28;20045;-73
2021/12/07 11:01:30;;;;;;;6.95;5.95;;;;;;;;;;12511224;28;20041;-73
2021/12/07 11:07:32;;;;;;;5.70;4.88;;;;;;;;;;12510924;28;20050;-73
2021/12/07 11:13:36;;;;;;;5.82;4.50;;;;;;;;;;12518756;28;20048;-73
2021/12/07 11:19:38;;;;;;;4.97;4.15;;;;;;;;;;12522919;28;20498;-73
2021/12/07 11:29:39;;;;;;;4.18;3.78;;;;;;;;;;12509129;28;20029;-73
2021/12/07 11:32:15;;;;;;;5.32;4.82;;;;;;;;;;12513382;28;20473;-73
2021/12/07 11:38:28;;;;;;;3.33;2.47;;;;;;;;;;12523307;28;20041;-73
2021/12/07 11:44:29;;;;;;;;;;;;;;;;;;12519824;28;20041;-73
2021/12/07 11:50:34;;;;;;;3.58;2.42;;;;;;;;;;12518266;28;19915;-73
2021/12/07 11:56:36;;;;;;;3.72;2.95;;;;;;;;;;12522683;28;20414;-73
2021/12/07 12:02:38;;;;;;;2.42;2.22;;;;;;;;;;12512094;28;20033;-74
2021/12/07 12:08:40;;;;;;;2.57;2.33;;;;;;;;;;12520800;28;20057;-74
2021/12/07 12:14:47;;;;;;;2.30;2.10;;;;;;;;;;12516301;28;20391;-73
2021/12/07 12:20:56;;;;;;;2.70;2.50;;;;;;;;;;12529030;28;20485;-74
2021/12/07 12:27:09;;;;;;;2.08;1.95;;;;;;;;;;12503263;28;20375;-75
2021/12/07 12:33:12;;;;;;;2.40;1.90;;;;;;;;;;12492754;28;20502;-75
2021/12/07 12:39:13;;;;;;;;;;;;;;;;;;12494197;28;20045;-75
2021/12/07 12:45:30;;;;;;;3.03;2.67;;;;;;;;;;12476008;28;19909;-74
2021/12/07 12:51:33;;;;;;;2.50;2.30;;;;;;;;;;12492873;28;20033;-75
2021/12/07 12:57:48;;;;;;;3.03;2.72;;;;;;;;;;12494464;28;20045;-75
2021/12/07 13:03:59;;;;;;;2.75;2.55;;;;;;;;;;12502773;28;20061;-74
2021/12/07 13:10:02;;;;;;;3.30;3.00;;;;;;;;;;12499779;28;20470;-74
2021/12/07 13:16:13;;;;;;;4.43;3.83;;;;;;;;;;12484384;28;20497;-75
2021/12/07 13:22:18;;;;;;;3.88;3.47;;;;;;;;;;12501022;28;20040;-73
2021/12/07 13:28:22;;;;;;;2.00;1.85;;;;;;;;;;12500139;28;20428;-73
2021/12/07 13:34:29;;;;;;;3.67;3.38;;;;;;;;;;12501263;28;20041;-74
2021/12/07 13:40:30;;;;;;;3.65;3.28;;;;;;;;;;12500848;28;20045;-74
2021/12/07 13:46:32;;;;;;;3.15;2.85;;;;;;;;;;12500760;28;20041;-74
2021/12/07 13:52:35;;;;;;;14.13;9.82;;;;;;;;;;12500376;28;20037;-73
2021/12/07 13:59:06;;;;;;;3.45;3.10;;;;;;;;;;12499733;28;20045;-74
2021/12/07 14:05:07;;;;;;;3.10;2.83;;;;;;;;;;12499301;28;20155;-74
2021/12/07 14:11:12;;;;;;;2.40;2.20;;;;;;;;;;12497693;28;20033;-74
2021/12/07 14:17:14;;;;;;;3.30;3.00;;;;;;;;;;12499257;28;20569;-74
2021/12/07 14:23:17;;;;;;;2.25;2.05;;;;;;;;;;12498290;28;20037;-74
2021/12/07 14:29:20;;;;;;;2.03;1.92;;;;;;;;;;12498715;28;20025;-73
2021/12/07 14:35:22;;;;;;;2.15;1.95;;;;;;;;;;12499576;28;20038;-75
2021/12/07 14:41:25;;;;;;;2.92;2.00;;;;;;;;;;12497052;28;20045;-74
2021/12/07 14:47:27;;;;;;;2.60;2.20;;;;;;;;;;12481341;28;20030;-74
2021/12/07 14:53:33;;;;;;;2.97;2.67;;;;;;;;;;12498109;28;20026;-74
2021/12/07 14:59:36;;;;;;;3.33;2.95;;;;;;;;;;12497269;28;20208;-73
2021/12/07 15:05:38;;;;;;;4.10;3.70;;;;;;;;;;12496247;28;20050;-73
2021/12/07 15:11:58;;;;;;;8.50;5.95;;;;;;;;;;12495422;28;20045;-73
2021/12/07 15:18:00;;;;;;;6.03;5.43;;;;;;;;;;12494974;28;20041;-75
2021/12/07 15:24:13;;;;;;;3.33;3.03;;;;;;;;;;12495325;28;20038;-74
2021/12/07 15:30:15;;;;;;;3.60;2.63;;;;;;;;;;12494718;28;20514;-74
2021/12/07 15:36:18;;;;;;;3.20;2.90;;;;;;;;;;12495334;28;20030;-74
2021/12/07 15:42:21;;;;;;;3.20;2.47;;;;;;;;;;12477785;28;20037;-74
2021/12/07 15:48:23;;;;;;;3.50;2.78;;;;;;;;;;12494684;28;20025;-74
2021/12/07 15:54:25;;;;;;;3.35;2.80;;;;;;;;;;12495150;28;20155;-74
2021/12/07 16:00:37;;;;;;;4.30;2.83;;;;;;;;;;12494795;28;20517;-74
2021/12/07 16:06:39;;;;;;;2.83;2.63;;;;;;;;;;12494766;28;20510;-74
2021/12/07 16:12:40;;;;;;;3.75;2.75;;;;;;;;;;12493867;28;20053;-75
2021/12/07 16:18:43;;;;;;;5.22;4.80;;;;;;;;;;12494058;28;20041;-74
2021/12/07 16:24:44;;;;;;;4.23;3.67;;;;;;;;;;12492562;28;20398;-75
2021/12/07 16:30:46;;;;;;;4.35;3.95;;;;;;;;;;12494666;28;20037;-74
2021/12/07 16:36:48;;;;;;;4.10;3.70;;;;;;;;;;12504509;28;20398;-74
2021/12/07 16:42:50;;;;;;;6.47;4.10;;;;;;;;;;12503355;28;20151;-74
2021/12/07 16:48:52;;;;;;;9.35;5.68;;;;;;;;;;12503039;28;20391;-75
2021/12/07 16:54:54;;;;;;;7.30;4.35;;;;;;;;;;12503710;28;20040;-75
2021/12/07 17:00:56;;;;;;;6.75;4.95;;;;;;;;;;12502247;28;20059;-75
2021/12/07 17:06:57;;;;;;;9.97;6.27;;;;;;;;;;12502336;28;20061;-80
2021/12/07 17:13:00;;;;;;;8.57;6.43;;;;;;;;;;12500982;28;20087;-77
2021/12/07 17:19:01;;;;;;;6.90;5.60;;;;;;;;;;12502337;28;20041;-74
2021/12/07 17:25:07;;;;;;;10.88;7.07;;;;;;;;;;12500143;28;20045;-74
2021/12/07 17:31:09;;;;;;;7.65;6.40;;;;;;;;;;12501066;28;20046;-75
2021/12/07 17:37:10;;;;;;;12.13;7.28;;;;;;;;;;12502275;28;20060;-73
2021/12/07 17:43:12;;;;;;;8.02;6.10;;;;;;;;;;12499009;28;20430;-76
2021/12/07 17:49:14;;;;;;;9.70;8.35;;;;;;;;;;12499811;28;20049;-76
2021/12/07 17:55:17;;;;;;;13.93;10.07;;;;;;;;;;12499990;28;20029;-74
2021/12/07 18:01:19;;;;;;;15.43;11.88;;;;;;;;;;12499468;28;20042;-75
2021/12/07 18:07:21;;;;;;;15.07;11.27;;;;;;;;;;12498597;28;20053;-74
2021/12/07 18:13:23;;;;;;;17.80;11.13;;;;;;;;;;12499481;28;20037;-74
2021/12/07 18:19:25;;;;;;;14.50;10.27;;;;;;;;;;12499420;28;20463;-75
2021/12/07 18:25:27;;;;;;;14.55;10.65;;;;;;;;;;12498077;28;20522;-77
2021/12/07 18:31:28;;;;;;;16.63;12.57;;;;;;;;;;12497452;28;20040;-73
2021/12/07 18:37:30;;;;;;;18.52;13.25;;;;;;;;;;12499442;28;20046;-74
2021/12/07 18:43:33;;;;;;;18.63;13.88;;;;;;;;;;12496382;28;20037;-75
2021/12/07 18:49:34;;;;;;;14.45;11.02;;;;;;;;;;12496364;28;20589;-74
2021/12/07 18:55:36;;;;;;;13.50;11.13;;;;;;;;;;12495336;28;20034;-73
2021/12/07 19:01:39;;;;;;;17.50;13.23;;;;;;;;;;12495972;28;20041;-73
2021/12/07 19:07:41;;;;;;;16.60;12.75;;;;;;;;;;12497717;28;20064;-73
2021/12/07 19:13:43;;;;;;;25.10;17.63;;;;;;;;;;12496877;28;20390;-73
2021/12/07 19:19:45;;;;;;;30.53;21.67;;;;;;;;;;12496615;28;20042;-73
2021/12/07 19:25:47;;;;;;;27.83;21.45;;;;;;;;;;12495161;28;20410;-73
2021/12/07 19:31:49;;;;;;;31.00;24.65;;;;;;;;;;12494320;28;20044;-73
2021/12/07 19:37:52;;;;;;;31.15;25.55;;;;;;;;;;12494377;28;20049;-73
2021/12/07 19:43:54;;;;;;;29.83;23.38;;;;;;;;;;12493907;28;20518;-73
2021/12/07 19:49:55;;;;;;;21.77;19.23;;;;;;;;;;12495493;28;20410;-73
2021/12/07 19:55:59;;;;;;;34.67;28.00;;;;;;;;;;12493469;28;20072;-73
2021/12/07 20:02:01;;;;;;;31.45;24.88;;;;;;;;;;12493879;28;20053;-74
2021/12/07 20:08:05;;;;;;;34.33;27.70;;;;;;;;;;12493035;28;20049;-74
2021/12/07 20:14:11;;;;;;;31.10;25.98;;;;;;;;;;12493351;28;20053;-74
2021/12/07 20:20:13;;;;;;;29.25;25.00;;;;;;;;;;12494637;28;20044;-74
2021/12/07 20:26:24;;;;;;;;;;;;;;;;;;12495158;28;20037;-74
2021/12/07 20:32:26;;;;;;;28.40;24.80;;;;;;;;;;12494641;28;19920;-73
2021/12/07 20:38:28;;;;;;;21.55;18.58;;;;;;;;;;12493086;28;20402;-75
2021/12/07 20:44:30;;;;;;;27.60;24.63;;;;;;;;;;12492585;28;20029;-74
2021/12/07 20:50:31;;;;;;;25.27;22.60;;;;;;;;;;12493732;28;20044;-74
2021/12/07 20:56:34;;;;;;;29.17;24.05;;;;;;;;;;12493511;28;20482;-74
2021/12/07 21:02:36;;;;;;;23.23;19.67;;;;;;;;;;12492176;28;20482;-75
2021/12/07 21:08:39;;;;;;;27.48;23.85;;;;;;;;;;12492530;28;20061;-74
2021/12/07 21:14:41;;;;;;;24.02;21.48;;;;;;;;;;12492649;28;20037;-74
2021/12/07 21:20:42;;;;;;;29.65;26.48;;;;;;;;;;12497361;28;20041;-74
2021/12/07 21:26:50;;;;;;;26.38;23.70;;;;;;;;;;12500419;28;20375;-74
2021/12/07 21:32:52;;;;;;;24.02;21.40;;;;;;;;;;12500669;28;20052;-74
2021/12/07 21:38:54;;;;;;;22.02;19.80;;;;;;;;;;12500885;28;20045;-73
2021/12/07 21:44:56;;;;;;;18.07;16.17;;;;;;;;;;12500834;28;20394;-74
2021/12/07 21:50:58;;;;;;;19.63;16.92;;;;;;;;;;12499452;28;20395;-74
2021/12/07 21:57:00;;;;;;;18.90;17.00;;;;;;;;;;12501240;28;20048;-73
2021/12/07 22:03:03;;;;;;;16.20;14.60;;;;;;;;;;12500322;28;20493;-73
2021/12/07 22:09:06;;;;;;;15.60;14.02;;;;;;;;;;12498846;28;20033;-73
2021/12/07 22:15:10;;;;;;;21.50;19.15;;;;;;;;;;12500446;28;20033;-73
2021/12/07 22:21:12;;;;;;;19.50;17.50;;;;;;;;;;12498625;28;20037;-73
2021/12/07 22:27:14;;;;;;;19.77;17.83;;;;;;;;;;12498863;28;20402;-73
2021/12/07 22:33:17;;;;;;;16.57;14.83;;;;;;;;;;12499176;28;20037;-73
2021/12/07 22:39:19;;;;;;;17.70;15.95;;;;;;;;;;12498605;28;20068;-74
2021/12/07 22:45:20;;;;;;;16.70;15.17;;;;;;;;;;12498009;28;20406;-73
2021/12/07 22:51:22;;;;;;;15.20;13.65;;;;;;;;;;12498875;28;20030;-73
2021/12/07 22:57:24;;;;;;;15.82;14.23;;;;;;;;;;12496550;28;20033;-73
2021/12/07 23:03:27;;;;;;;11.35;10.07;;;;;;;;;;12497561;28;20052;-73
2021/12/07 23:09:29;;;;;;;14.02;12.55;;;;;;;;;;12497162;28;20038;-73
2021/12/07 23:15:31;;;;;;;15.77;14.17;;;;;;;;;;12496972;28;20033;-73
2021/12/07 23:21:33;;;;;;;11.30;10.23;;;;;;;;;;12495341;28;20045;-74
2021/12/07 23:27:35;;;;;;;15.48;13.90;;;;;;;;;;12496557;28;20041;-73
2021/12/07 23:33:37;;;;;;;11.80;10.70;;;;;;;;;;12496367;28;20379;-73
2021/12/07 23:39:39;;;;;;;15.17;13.17;;;;;;;;;;12496046;28;20042;-73
2021/12/07 23:45:41;;;;;;;10.35;9.30;;;;;;;;;;12495022;28;20044;-73
2021/12/07 23:51:43;;;;;;;9.93;9.03;;;;;;;;;;12495637;28;20416;-73
2021/12/07 23:57:45;;;;;;;12.75;11.50;;;;;;;;;;12495055;28;20049;-73
